Terminal Aerodrome Forecast
Issued by NWS

Home | Current Version | Previous Version | Text Only | Print | Product List | Glossary On
Versions: 1 2 3 4 5 6 7 8 9 10 11 12 13 14 15 16 17 18 19 20 21 22
000
FTUS44 KOUN 252328
TAFPNC
TAF
KPNC 252328Z 2600/2624 17015KT P6SM BKN250
     FM260900 17010KT P6SM BKN200
     FM261600 18009KT P6SM OVC015
     FM262200 34010KT P6SM OVC012=

USA.gov is the U.S. government's official web portal to all federal, state and local government web resources and services.